Alpnach Air Base LSMA

Airport Data

Name: Alpnach Air Base

Ident: LSMA

Lat: 46.94390106

Long: 8.284170151

Elevation: 1460 ft

IataCode:

City: Alpnach

Metar

2021/09/28 06:20
LSMA 280620Z 08008KT 040V110 9999 OVC027 14/11 Q1024 RMK BLU

Taf

2021/09/27 17:00
TAF LSMA 271625Z 2717/2823 VRB02KT 9999 BKN120
TEMPO 2722/2807 SHRA= TAF LSMD 271625Z 2717/2823 30003KT CAVOK
BECMG 2720/2723 9999 BKN040
TEMPO 2800/2806 SHRA
Add a Webcam Url. We will unlock it as soon is possible. Thank you:
Url: Title: